sensor_id;sensor_type;location;lat;lon;timestamp;temperature;humidity
20845;DHT22;10583;49.084;8.646;2023-06-22T00:01:18;20.80;99.90
20845;DHT22;10583;49.084;8.646;2023-06-22T00:03:46;20.70;99.90
20845;DHT22;10583;49.084;8.646;2023-06-22T00:06:13;20.60;99.90
20845;DHT22;10583;49.084;8.646;2023-06-22T00:08:41;20.60;99.90
20845;DHT22;10583;49.084;8.646;2023-06-22T00:11:08;20.60;99.90
20845;DHT22;10583;49.084;8.646;2023-06-22T00:13:34;20.70;99.90
20845;DHT22;10583;49.084;8.646;2023-06-22T00:16:01;20.80;99.90
20845;DHT22;10583;49.084;8.646;2023-06-22T00:18:28;20.80;99.90
20845;DHT22;10583;49.084;8.646;2023-06-22T00:20:56;20.80;99.90
20845;DHT22;10583;49.084;8.646;2023-06-22T00:23:24;20.80;99.90
20845;DHT22;10583;49.084;8.646;2023-06-22T00:25:52;20.90;99.90
20845;DHT22;10583;49.084;8.646;2023-06-22T00:28:19;21.00;99.90
20845;DHT22;10583;49.084;8.646;2023-06-22T00:30:46;21.00;99.90
20845;DHT22;10583;49.084;8.646;2023-06-22T00:33:13;21.00;99.90
20845;DHT22;10583;49.084;8.646;2023-06-22T00:35:41;21.00;99.90
20845;DHT22;10583;49.084;8.646;2023-06-22T00:38:08;21.00;99.90
20845;DHT22;10583;49.084;8.646;2023-06-22T00:40:35;20.90;99.90
20845;DHT22;10583;49.084;8.646;2023-06-22T00:43:04;20.90;99.90
20845;DHT22;10583;49.084;8.646;2023-06-22T00:45:31;20.90;99.90
20845;DHT22;10583;49.084;8.646;2023-06-22T00:47:58;21.00;99.90
20845;DHT22;10583;49.084;8.646;2023-06-22T00:50:27;21.00;99.90
20845;DHT22;10583;49.084;8.646;2023-06-22T00:52:56;21.10;99.90
20845;DHT22;10583;49.084;8.646;2023-06-22T00:55:24;20.90;99.90
20845;DHT22;10583;49.084;8.646;2023-06-22T00:57:52;20.80;99.90
20845;DHT22;10583;49.084;8.646;2023-06-22T01:00:24;20.80;99.90
20845;DHT22;10583;49.084;8.646;2023-06-22T01:02:53;20.80;99.90
20845;DHT22;10583;49.084;8.646;2023-06-22T01:05:22;20.70;99.90
20845;DHT22;10583;49.084;8.646;2023-06-22T01:08:03;20.60;99.90
20845;DHT22;10583;49.084;8.646;2023-06-22T01:10:38;20.60;99.90
20845;DHT22;10583;49.084;8.646;2023-06-22T01:13:13;20.60;99.90
20845;DHT22;10583;49.084;8.646;2023-06-22T01:15:49;20.50;99.90
20845;DHT22;10583;49.084;8.646;2023-06-22T01:18:21;20.50;99.90
20845;DHT22;10583;49.084;8.646;2023-06-22T01:20:52;20.50;99.90
20845;DHT22;10583;49.084;8.646;2023-06-22T01:23:26;20.50;99.90
20845;DHT22;10583;49.084;8.646;2023-06-22T01:25:59;20.50;99.90
20845;DHT22;10583;49.084;8.646;2023-06-22T01:28:52;20.40;99.90
20845;DHT22;10583;49.084;8.646;2023-06-22T01:31:21;20.40;99.90
20845;DHT22;10583;49.084;8.646;2023-06-22T01:33:51;20.40;99.90
20845;DHT22;10583;49.084;8.646;2023-06-22T01:36:19;20.40;99.90
20845;DHT22;10583;49.084;8.646;2023-06-22T01:38:47;20.40;99.90
20845;DHT22;10583;49.084;8.646;2023-06-22T01:41:15;20.40;99.90
20845;DHT22;10583;49.084;8.646;2023-06-22T01:43:42;20.40;99.90
20845;DHT22;10583;49.084;8.646;2023-06-22T01:46:12;20.40;99.90
20845;DHT22;10583;49.084;8.646;2023-06-22T01:48:39;20.30;99.90
20845;DHT22;10583;49.084;8.646;2023-06-22T01:51:06;20.30;99.90
20845;DHT22;10583;49.084;8.646;2023-06-22T01:53:33;20.30;99.90
20845;DHT22;10583;49.084;8.646;2023-06-22T01:55:59;20.20;99.90
20845;DHT22;10583;49.084;8.646;2023-06-22T01:58:28;20.10;99.90
20845;DHT22;10583;49.084;8.646;2023-06-22T02:00:58;20.00;99.90
20845;DHT22;10583;49.084;8.646;2023-06-22T02:03:32;20.00;99.90
20845;DHT22;10583;49.084;8.646;2023-06-22T02:06:04;19.90;99.90
20845;DHT22;10583;49.084;8.646;2023-06-22T02:08:36;19.90;99.90
20845;DHT22;10583;49.084;8.646;2023-06-22T02:11:05;19.90;99.90
20845;DHT22;10583;49.084;8.646;2023-06-22T02:13:33;19.80;99.90
20845;DHT22;10583;49.084;8.646;2023-06-22T02:16:01;19.70;99.90
20845;DHT22;10583;49.084;8.646;2023-06-22T02:18:27;19.70;99.90
20845;DHT22;10583;49.084;8.646;2023-06-22T02:20:55;19.70;99.90
20845;DHT22;10583;49.084;8.646;2023-06-22T02:23:22;19.70;99.90
20845;DHT22;10583;49.084;8.646;2023-06-22T02:25:49;19.60;99.90
20845;DHT22;10583;49.084;8.646;2023-06-22T02:28:16;19.60;99.90
20845;DHT22;10583;49.084;8.646;2023-06-22T02:30:42;19.60;99.90
20845;DHT22;10583;49.084;8.646;2023-06-22T02:33:09;19.60;99.90
20845;DHT22;10583;49.084;8.646;2023-06-22T02:35:36;19.60;99.90
20845;DHT22;10583;49.084;8.646;2023-06-22T02:38:04;19.50;99.90
20845;DHT22;10583;49.084;8.646;2023-06-22T02:40:31;19.50;99.90
20845;DHT22;10583;49.084;8.646;2023-06-22T02:42:58;19.50;99.90
20845;DHT22;10583;49.084;8.646;2023-06-22T02:45:27;19.40;99.90
20845;DHT22;10583;49.084;8.646;2023-06-22T02:47:54;19.40;99.90
20845;DHT22;10583;49.084;8.646;2023-06-22T02:50:21;19.40;99.90
20845;DHT22;10583;49.084;8.646;2023-06-22T02:52:48;19.30;99.90
20845;DHT22;10583;49.084;8.646;2023-06-22T02:55:16;19.20;99.90
20845;DHT22;10583;49.084;8.646;2023-06-22T02:57:42;19.20;99.90
20845;DHT22;10583;49.084;8.646;2023-06-22T03:00:11;19.10;99.90
20845;DHT22;10583;49.084;8.646;2023-06-22T03:02:43;19.10;99.90
20845;DHT22;10583;49.084;8.646;2023-06-22T03:05:10;19.00;99.90
20845;DHT22;10583;49.084;8.646;2023-06-22T03:07:39;19.00;99.90
20845;DHT22;10583;49.084;8.646;2023-06-22T03:10:07;19.00;99.90
20845;DHT22;10583;49.084;8.646;2023-06-22T03:12:36;19.00;99.90
20845;DHT22;10583;49.084;8.646;2023-06-22T03:15:04;19.00;99.90
20845;DHT22;10583;49.084;8.646;2023-06-22T03:17:31;18.90;99.90
20845;DHT22;10583;49.084;8.646;2023-06-22T03:19:57;18.90;99.90
20845;DHT22;10583;49.084;8.646;2023-06-22T03:22:24;18.90;99.90
20845;DHT22;10583;49.084;8.646;2023-06-22T03:24:51;18.90;99.90
20845;DHT22;10583;49.084;8.646;2023-06-22T03:27:17;18.90;99.90
20845;DHT22;10583;49.084;8.646;2023-06-22T03:29:45;18.90;99.90
20845;DHT22;10583;49.084;8.646;2023-06-22T03:32:12;18.90;99.90
20845;DHT22;10583;49.084;8.646;2023-06-22T03:34:39;18.90;99.90
20845;DHT22;10583;49.084;8.646;2023-06-22T03:37:05;18.90;99.90
20845;DHT22;10583;49.084;8.646;2023-06-22T03:39:32;18.90;99.90
20845;DHT22;10583;49.084;8.646;2023-06-22T03:41:59;18.80;99.90
20845;DHT22;10583;49.084;8.646;2023-06-22T03:44:25;18.80;99.90
20845;DHT22;10583;49.084;8.646;2023-06-22T03:46:53;18.80;99.90
20845;DHT22;10583;49.084;8.646;2023-06-22T03:49:20;18.90;99.90
20845;DHT22;10583;49.084;8.646;2023-06-22T03:51:47;18.90;99.90
20845;DHT22;10583;49.084;8.646;2023-06-22T03:54:14;18.90;99.90
20845;DHT22;10583;49.084;8.646;2023-06-22T03:56:40;18.90;99.90
20845;DHT22;10583;49.084;8.646;2023-06-22T03:59:07;18.90;99.90
20845;DHT22;10583;49.084;8.646;2023-06-22T04:01:34;18.90;99.90
20845;DHT22;10583;49.084;8.646;2023-06-22T04:04:02;19.00;99.90
20845;DHT22;10583;49.084;8.646;2023-06-22T04:06:28;19.00;99.90
20845;DHT22;10583;49.084;8.646;2023-06-22T04:08:55;19.00;99.90
20845;DHT22;10583;49.084;8.646;2023-06-22T04:11:22;19.00;99.90
20845;DHT22;10583;49.084;8.646;2023-06-22T04:13:48;19.00;99.90
20845;DHT22;10583;49.084;8.646;2023-06-22T04:16:16;19.00;99.90
20845;DHT22;10583;49.084;8.646;2023-06-22T04:18:43;19.10;99.90
20845;DHT22;10583;49.084;8.646;2023-06-22T04:21:11;19.10;99.90
20845;DHT22;10583;49.084;8.646;2023-06-22T04:23:38;19.10;99.90
20845;DHT22;10583;49.084;8.646;2023-06-22T04:26:04;19.20;99.90
20845;DHT22;10583;49.084;8.646;2023-06-22T04:28:31;19.20;99.90
20845;DHT22;10583;49.084;8.646;2023-06-22T04:31:00;19.30;99.90
20845;DHT22;10583;49.084;8.646;2023-06-22T04:33:27;19.30;99.90
20845;DHT22;10583;49.084;8.646;2023-06-22T04:35:55;19.40;99.90
20845;DHT22;10583;49.084;8.646;2023-06-22T04:38:24;19.50;99.90
20845;DHT22;10583;49.084;8.646;2023-06-22T04:40:51;19.60;99.90
20845;DHT22;10583;49.084;8.646;2023-06-22T04:43:18;19.60;99.90
20845;DHT22;10583;49.084;8.646;2023-06-22T04:45:45;19.70;99.90
20845;DHT22;10583;49.084;8.646;2023-06-22T04:48:12;19.70;99.90
20845;DHT22;10583;49.084;8.646;2023-06-22T04:50:41;19.80;99.90
20845;DHT22;10583;49.084;8.646;2023-06-22T04:53:08;19.80;99.90
20845;DHT22;10583;49.084;8.646;2023-06-22T04:55:36;19.90;99.90
20845;DHT22;10583;49.084;8.646;2023-06-22T04:58:07;19.90;99.90
20845;DHT22;10583;49.084;8.646;2023-06-22T05:00:34;20.00;99.90
20845;DHT22;10583;49.084;8.646;2023-06-22T05:03:02;20.10;99.90
20845;DHT22;10583;49.084;8.646;2023-06-22T05:05:29;20.20;99.90
20845;DHT22;10583;49.084;8.646;2023-06-22T05:07:57;20.20;99.90
20845;DHT22;10583;49.084;8.646;2023-06-22T05:10:25;20.20;99.90
20845;DHT22;10583;49.084;8.646;2023-06-22T05:12:53;20.30;99.90
20845;DHT22;10583;49.084;8.646;2023-06-22T05:15:20;20.40;99.90
20845;DHT22;10583;49.084;8.646;2023-06-22T05:17:48;20.40;99.90
20845;DHT22;10583;49.084;8.646;2023-06-22T05:20:15;20.40;99.90
20845;DHT22;10583;49.084;8.646;2023-06-22T05:22:43;20.60;99.90
20845;DHT22;10583;49.084;8.646;2023-06-22T05:25:11;20.70;99.90
20845;DHT22;10583;49.084;8.646;2023-06-22T05:27:37;20.70;99.90
20845;DHT22;10583;49.084;8.646;2023-06-22T05:30:08;20.90;99.90
20845;DHT22;10583;49.084;8.646;2023-06-22T05:32:35;21.00;99.90
20845;DHT22;10583;49.084;8.646;2023-06-22T05:35:02;21.00;99.90
20845;DHT22;10583;49.084;8.646;2023-06-22T05:37:28;21.00;99.90
20845;DHT22;10583;49.084;8.646;2023-06-22T05:39:55;21.10;99.90
20845;DHT22;10583;49.084;8.646;2023-06-22T05:42:22;21.20;99.90
20845;DHT22;10583;49.084;8.646;2023-06-22T05:44:50;21.30;99.90
20845;DHT22;10583;49.084;8.646;2023-06-22T05:47:19;21.30;99.90
20845;DHT22;10583;49.084;8.646;2023-06-22T05:49:48;21.40;99.90
20845;DHT22;10583;49.084;8.646;2023-06-22T05:52:14;21.40;99.90
20845;DHT22;10583;49.084;8.646;2023-06-22T05:54:41;21.50;99.90
20845;DHT22;10583;49.084;8.646;2023-06-22T05:57:08;21.60;99.90
20845;DHT22;10583;49.084;8.646;2023-06-22T05:59:35;21.60;99.90
20845;DHT22;10583;49.084;8.646;2023-06-22T06:02:01;21.80;99.90
20845;DHT22;10583;49.084;8.646;2023-06-22T06:04:29;21.90;99.90
20845;DHT22;10583;49.084;8.646;2023-06-22T06:06:56;22.10;99.90
20845;DHT22;10583;49.084;8.646;2023-06-22T06:09:23;22.20;99.90
20845;DHT22;10583;49.084;8.646;2023-06-22T06:11:50;22.30;99.90
20845;DHT22;10583;49.084;8.646;2023-06-22T06:14:16;22.30;99.90
20845;DHT22;10583;49.084;8.646;2023-06-22T06:16:43;22.60;99.90
20845;DHT22;10583;49.084;8.646;2023-06-22T06:19:10;22.80;99.90
20845;DHT22;10583;49.084;8.646;2023-06-22T06:21:38;23.00;99.90
20845;DHT22;10583;49.084;8.646;2023-06-22T06:24:05;23.20;99.90
20845;DHT22;10583;49.084;8.646;2023-06-22T06:26:32;23.30;99.90
20845;DHT22;10583;49.084;8.646;2023-06-22T06:29:01;23.40;99.90
20845;DHT22;10583;49.084;8.646;2023-06-22T06:31:29;23.40;99.90
20845;DHT22;10583;49.084;8.646;2023-06-22T06:33:55;23.50;99.90
20845;DHT22;10583;49.084;8.646;2023-06-22T06:36:22;23.60;99.90
20845;DHT22;10583;49.084;8.646;2023-06-22T06:38:50;23.60;99.90
20845;DHT22;10583;49.084;8.646;2023-06-22T06:41:18;23.70;99.90
20845;DHT22;10583;49.084;8.646;2023-06-22T06:43:46;23.70;99.90
20845;DHT22;10583;49.084;8.646;2023-06-22T06:46:13;23.70;99.90
20845;DHT22;10583;49.084;8.646;2023-06-22T06:48:39;23.90;99.90
20845;DHT22;10583;49.084;8.646;2023-06-22T06:51:06;24.00;99.90
20845;DHT22;10583;49.084;8.646;2023-06-22T06:53:35;24.20;99.90
20845;DHT22;10583;49.084;8.646;2023-06-22T06:56:03;24.40;99.90
20845;DHT22;10583;49.084;8.646;2023-06-22T06:58:30;24.40;99.90
20845;DHT22;10583;49.084;8.646;2023-06-22T07:00:57;24.60;99.90
20845;DHT22;10583;49.084;8.646;2023-06-22T07:03:24;24.80;99.90
20845;DHT22;10583;49.084;8.646;2023-06-22T07:05:51;24.90;99.90
20845;DHT22;10583;49.084;8.646;2023-06-22T07:08:17;25.20;99.90
20845;DHT22;10583;49.084;8.646;2023-06-22T07:10:44;25.30;99.90
20845;DHT22;10583;49.084;8.646;2023-06-22T07:13:12;25.40;99.90
20845;DHT22;10583;49.084;8.646;2023-06-22T07:15:39;25.60;99.90
20845;DHT22;10583;49.084;8.646;2023-06-22T07:18:05;25.90;99.90
20845;DHT22;10583;49.084;8.646;2023-06-22T07:20:32;26.10;99.90
20845;DHT22;10583;49.084;8.646;2023-06-22T07:22:59;26.50;99.90
20845;DHT22;10583;49.084;8.646;2023-06-22T07:25:25;26.80;99.90
20845;DHT22;10583;49.084;8.646;2023-06-22T07:28:00;26.70;99.90
20845;DHT22;10583;49.084;8.646;2023-06-22T07:30:29;26.80;99.90
20845;DHT22;10583;49.084;8.646;2023-06-22T07:32:57;26.80;99.90
20845;DHT22;10583;49.084;8.646;2023-06-22T07:35:29;27.10;99.90
20845;DHT22;10583;49.084;8.646;2023-06-22T07:37:55;27.10;99.90
20845;DHT22;10583;49.084;8.646;2023-06-22T07:40:22;27.30;99.90
20845;DHT22;10583;49.084;8.646;2023-06-22T07:42:49;27.40;99.90
20845;DHT22;10583;49.084;8.646;2023-06-22T07:45:17;27.10;99.90
20845;DHT22;10583;49.084;8.646;2023-06-22T07:47:45;27.10;99.90
20845;DHT22;10583;49.084;8.646;2023-06-22T07:50:12;27.40;99.90
20845;DHT22;10583;49.084;8.646;2023-06-22T07:52:38;27.50;99.90
20845;DHT22;10583;49.084;8.646;2023-06-22T07:55:05;27.70;99.90
20845;DHT22;10583;49.084;8.646;2023-06-22T07:57:32;27.80;99.90
20845;DHT22;10583;49.084;8.646;2023-06-22T07:59:59;28.10;99.90
20845;DHT22;10583;49.084;8.646;2023-06-22T08:02:26;28.50;99.90
20845;DHT22;10583;49.084;8.646;2023-06-22T08:04:54;28.90;99.90
20845;DHT22;10583;49.084;8.646;2023-06-22T08:07:21;29.00;99.90
20845;DHT22;10583;49.084;8.646;2023-06-22T08:09:48;29.00;99.90
20845;DHT22;10583;49.084;8.646;2023-06-22T08:12:15;29.20;99.90
20845;DHT22;10583;49.084;8.646;2023-06-22T08:14:42;29.30;99.90
20845;DHT22;10583;49.084;8.646;2023-06-22T08:17:09;29.40;99.90
20845;DHT22;10583;49.084;8.646;2023-06-22T08:19:37;29.60;99.90
20845;DHT22;10583;49.084;8.646;2023-06-22T08:22:05;29.70;99.90
20845;DHT22;10583;49.084;8.646;2023-06-22T08:24:32;29.60;99.90
20845;DHT22;10583;49.084;8.646;2023-06-22T08:26:59;29.70;99.90
20845;DHT22;10583;49.084;8.646;2023-06-22T08:29:25;29.90;99.90
20845;DHT22;10583;49.084;8.646;2023-06-22T08:31:52;29.90;99.90
20845;DHT22;10583;49.084;8.646;2023-06-22T08:34:19;30.00;99.90
20845;DHT22;10583;49.084;8.646;2023-06-22T08:36:48;30.30;99.90
20845;DHT22;10583;49.084;8.646;2023-06-22T08:39:19;30.30;99.90
20845;DHT22;10583;49.084;8.646;2023-06-22T08:41:46;30.10;99.90
20845;DHT22;10583;49.084;8.646;2023-06-22T08:44:13;29.60;99.90
20845;DHT22;10583;49.084;8.646;2023-06-22T08:46:39;29.30;99.90
20845;DHT22;10583;49.084;8.646;2023-06-22T08:49:07;29.10;99.90
20845;DHT22;10583;49.084;8.646;2023-06-22T08:51:35;28.70;99.90
20845;DHT22;10583;49.084;8.646;2023-06-22T08:54:01;28.40;99.90
20845;DHT22;10583;49.084;8.646;2023-06-22T08:56:29;28.20;99.90
20845;DHT22;10583;49.084;8.646;2023-06-22T08:58:56;28.40;99.90
20845;DHT22;10583;49.084;8.646;2023-06-22T09:01:23;29.00;99.90
20845;DHT22;10583;49.084;8.646;2023-06-22T09:03:50;29.20;99.90
20845;DHT22;10583;49.084;8.646;2023-06-22T09:06:20;28.80;99.90
20845;DHT22;10583;49.084;8.646;2023-06-22T09:08:47;29.10;99.90
20845;DHT22;10583;49.084;8.646;2023-06-22T09:11:14;29.90;99.90
20845;DHT22;10583;49.084;8.646;2023-06-22T09:13:42;30.40;99.90
20845;DHT22;10583;49.084;8.646;2023-06-22T09:16:10;30.60;99.90
20845;DHT22;10583;49.084;8.646;2023-06-22T09:18:37;30.30;99.90
20845;DHT22;10583;49.084;8.646;2023-06-22T09:21:03;29.90;99.90
20845;DHT22;10583;49.084;8.646;2023-06-22T09:23:30;30.00;99.90
20845;DHT22;10583;49.084;8.646;2023-06-22T09:25:57;30.50;99.90
20845;DHT22;10583;49.084;8.646;2023-06-22T09:28:23;31.10;99.90
20845;DHT22;10583;49.084;8.646;2023-06-22T09:30:52;31.20;99.90
20845;DHT22;10583;49.084;8.646;2023-06-22T09:33:24;31.40;99.90
20845;DHT22;10583;49.084;8.646;2023-06-22T09:35:51;31.70;99.90
20845;DHT22;10583;49.084;8.646;2023-06-22T09:38:18;32.20;99.90
20845;DHT22;10583;49.084;8.646;2023-06-22T09:40:44;32.50;99.90
20845;DHT22;10583;49.084;8.646;2023-06-22T09:43:11;32.50;99.90
20845;DHT22;10583;49.084;8.646;2023-06-22T09:45:38;32.50;99.90
20845;DHT22;10583;49.084;8.646;2023-06-22T09:48:06;32.20;99.90
20845;DHT22;10583;49.084;8.646;2023-06-22T09:50:35;32.10;99.90
20845;DHT22;10583;49.084;8.646;2023-06-22T09:53:01;32.00;99.90
20845;DHT22;10583;49.084;8.646;2023-06-22T09:55:28;31.80;99.90
20845;DHT22;10583;49.084;8.646;2023-06-22T09:57:55;31.40;99.90
20845;DHT22;10583;49.084;8.646;2023-06-22T10:00:21;31.60;99.90
20845;DHT22;10583;49.084;8.646;2023-06-22T10:02:48;31.60;99.90
20845;DHT22;10583;49.084;8.646;2023-06-22T10:05:17;31.60;99.90
20845;DHT22;10583;49.084;8.646;2023-06-22T10:07:44;31.50;99.90
20845;DHT22;10583;49.084;8.646;2023-06-22T10:10:11;31.20;99.90
20845;DHT22;10583;49.084;8.646;2023-06-22T10:12:41;31.10;99.90
20845;DHT22;10583;49.084;8.646;2023-06-22T10:15:09;31.00;99.90
20845;DHT22;10583;49.084;8.646;2023-06-22T10:17:36;31.10;99.90
20845;DHT22;10583;49.084;8.646;2023-06-22T10:20:03;30.90;99.90
20845;DHT22;10583;49.084;8.646;2023-06-22T10:22:38;30.60;99.90
20845;DHT22;10583;49.084;8.646;2023-06-22T10:25:05;30.40;99.90
20845;DHT22;10583;49.084;8.646;2023-06-22T10:27:32;30.30;99.90
20845;DHT22;10583;49.084;8.646;2023-06-22T10:29:59;30.20;99.90
20845;DHT22;10583;49.084;8.646;2023-06-22T10:32:26;30.20;99.90
20845;DHT22;10583;49.084;8.646;2023-06-22T10:34:53;30.10;99.90
20845;DHT22;10583;49.084;8.646;2023-06-22T10:37:20;30.10;99.90
20845;DHT22;10583;49.084;8.646;2023-06-22T10:39:48;30.10;99.90
20845;DHT22;10583;49.084;8.646;2023-06-22T10:42:15;30.10;99.90
20845;DHT22;10583;49.084;8.646;2023-06-22T10:44:41;30.10;99.90
20845;DHT22;10583;49.084;8.646;2023-06-22T10:47:09;30.10;99.90
20845;DHT22;10583;49.084;8.646;2023-06-22T10:49:37;30.30;99.90
20845;DHT22;10583;49.084;8.646;2023-06-22T10:52:04;30.40;99.90
20845;DHT22;10583;49.084;8.646;2023-06-22T10:54:32;30.50;99.90
20845;DHT22;10583;49.084;8.646;2023-06-22T10:57:01;30.60;99.90
20845;DHT22;10583;49.084;8.646;2023-06-22T10:59:28;30.70;99.90
20845;DHT22;10583;49.084;8.646;2023-06-22T11:01:55;30.70;99.90
20845;DHT22;10583;49.084;8.646;2023-06-22T11:04:22;30.60;99.90
20845;DHT22;10583;49.084;8.646;2023-06-22T11:06:49;30.60;99.90
20845;DHT22;10583;49.084;8.646;2023-06-22T11:09:15;30.80;99.90
20845;DHT22;10583;49.084;8.646;2023-06-22T11:11:45;30.80;99.90
20845;DHT22;10583;49.084;8.646;2023-06-22T11:14:14;30.80;99.90
20845;DHT22;10583;49.084;8.646;2023-06-22T11:16:40;30.70;99.90
20845;DHT22;10583;49.084;8.646;2023-06-22T11:19:07;30.70;99.90
20845;DHT22;10583;49.084;8.646;2023-06-22T11:21:34;30.90;99.90
20845;DHT22;10583;49.084;8.646;2023-06-22T11:24:01;30.80;99.90
20845;DHT22;10583;49.084;8.646;2023-06-22T11:26:27;30.60;99.90
20845;DHT22;10583;49.084;8.646;2023-06-22T11:28:54;30.40;99.90
20845;DHT22;10583;49.084;8.646;2023-06-22T11:31:22;30.40;99.90
20845;DHT22;10583;49.084;8.646;2023-06-22T11:33:49;30.20;99.90
20845;DHT22;10583;49.084;8.646;2023-06-22T11:36:16;30.30;99.90
20845;DHT22;10583;49.084;8.646;2023-06-22T11:38:43;30.50;99.90
20845;DHT22;10583;49.084;8.646;2023-06-22T11:41:10;30.60;99.90
20845;DHT22;10583;49.084;8.646;2023-06-22T11:43:37;30.50;99.90
20845;DHT22;10583;49.084;8.646;2023-06-22T11:46:04;30.60;99.90
20845;DHT22;10583;49.084;8.646;2023-06-22T11:48:32;30.60;99.90
20845;DHT22;10583;49.084;8.646;2023-06-22T11:50:59;30.70;99.90
20845;DHT22;10583;49.084;8.646;2023-06-22T11:53:26;30.60;99.90
20845;DHT22;10583;49.084;8.646;2023-06-22T11:55:53;30.60;99.90
20845;DHT22;10583;49.084;8.646;2023-06-22T11:58:20;30.40;99.90
20845;DHT22;10583;49.084;8.646;2023-06-22T12:00:47;30.30;99.90
20845;DHT22;10583;49.084;8.646;2023-06-22T12:03:14;30.10;99.90
20845;DHT22;10583;49.084;8.646;2023-06-22T12:05:43;30.10;99.90
20845;DHT22;10583;49.084;8.646;2023-06-22T12:08:10;30.10;99.90
20845;DHT22;10583;49.084;8.646;2023-06-22T12:10:37;30.10;99.90
20845;DHT22;10583;49.084;8.646;2023-06-22T12:13:04;30.20;99.90
20845;DHT22;10583;49.084;8.646;2023-06-22T12:15:30;30.10;99.90
20845;DHT22;10583;49.084;8.646;2023-06-22T12:17:57;30.20;99.90
20845;DHT22;10583;49.084;8.646;2023-06-22T12:20:24;30.40;99.90
20845;DHT22;10583;49.084;8.646;2023-06-22T12:22:52;30.60;99.90
20845;DHT22;10583;49.084;8.646;2023-06-22T12:25:21;30.90;99.90
20845;DHT22;10583;49.084;8.646;2023-06-22T12:27:48;31.20;99.90
20845;DHT22;10583;49.084;8.646;2023-06-22T12:30:16;31.40;99.90
20845;DHT22;10583;49.084;8.646;2023-06-22T12:32:43;31.50;99.90
20845;DHT22;10583;49.084;8.646;2023-06-22T12:35:09;31.40;99.90
20845;DHT22;10583;49.084;8.646;2023-06-22T12:37:39;31.30;99.90
20845;DHT22;10583;49.084;8.646;2023-06-22T12:40:09;31.40;99.90
20845;DHT22;10583;49.084;8.646;2023-06-22T12:42:36;31.60;99.90
20845;DHT22;10583;49.084;8.646;2023-06-22T12:45:03;31.90;99.90
20845;DHT22;10583;49.084;8.646;2023-06-22T12:47:30;32.00;99.90
20845;DHT22;10583;49.084;8.646;2023-06-22T12:49:57;32.10;99.90
20845;DHT22;10583;49.084;8.646;2023-06-22T12:52:23;31.90;99.90
20845;DHT22;10583;49.084;8.646;2023-06-22T12:54:50;31.70;99.90
20845;DHT22;10583;49.084;8.646;2023-06-22T12:57:19;31.50;99.90
20845;DHT22;10583;49.084;8.646;2023-06-22T12:59:45;31.40;99.90
20845;DHT22;10583;49.084;8.646;2023-06-22T13:02:12;31.40;99.90
20845;DHT22;10583;49.084;8.646;2023-06-22T13:04:39;31.50;99.90
20845;DHT22;10583;49.084;8.646;2023-06-22T13:07:05;31.70;99.90
20845;DHT22;10583;49.084;8.646;2023-06-22T13:09:32;31.90;99.90
20845;DHT22;10583;49.084;8.646;2023-06-22T13:12:00;32.40;99.90
20845;DHT22;10583;49.084;8.646;2023-06-22T13:14:29;33.10;99.90
20845;DHT22;10583;49.084;8.646;2023-06-22T13:16:55;33.50;99.90
20845;DHT22;10583;49.084;8.646;2023-06-22T13:19:22;33.50;99.90
20845;DHT22;10583;49.084;8.646;2023-06-22T13:21:49;33.90;99.90
20845;DHT22;10583;49.084;8.646;2023-06-22T13:24:16;34.30;99.90
20845;DHT22;10583;49.084;8.646;2023-06-22T13:26:43;34.50;99.90
20845;DHT22;10583;49.084;8.646;2023-06-22T13:29:09;34.40;99.90
20845;DHT22;10583;49.084;8.646;2023-06-22T13:31:38;33.80;99.90
20845;DHT22;10583;49.084;8.646;2023-06-22T13:34:05;33.90;99.90
20845;DHT22;10583;49.084;8.646;2023-06-22T13:36:32;33.90;99.90
20845;DHT22;10583;49.084;8.646;2023-06-22T13:38:58;34.20;99.90
20845;DHT22;10583;49.084;8.646;2023-06-22T13:41:25;34.30;99.80
20845;DHT22;10583;49.084;8.646;2023-06-22T13:43:52;34.30;99.90
20845;DHT22;10583;49.084;8.646;2023-06-22T13:46:18;33.80;99.90
20845;DHT22;10583;49.084;8.646;2023-06-22T13:48:46;33.70;99.90
20845;DHT22;10583;49.084;8.646;2023-06-22T13:51:13;34.00;99.90
20845;DHT22;10583;49.084;8.646;2023-06-22T13:53:40;34.30;99.90
20845;DHT22;10583;49.084;8.646;2023-06-22T13:56:06;34.30;99.90
20845;DHT22;10583;49.084;8.646;2023-06-22T13:58:33;34.20;99.90
20845;DHT22;10583;49.084;8.646;2023-06-22T14:01:00;33.90;99.90
20845;DHT22;10583;49.084;8.646;2023-06-22T14:03:26;33.40;99.90
20845;DHT22;10583;49.084;8.646;2023-06-22T14:05:54;32.90;99.90
20845;DHT22;10583;49.084;8.646;2023-06-22T14:08:22;32.60;99.90
20845;DHT22;10583;49.084;8.646;2023-06-22T14:10:50;32.70;99.90
20845;DHT22;10583;49.084;8.646;2023-06-22T14:13:19;32.80;99.90
20845;DHT22;10583;49.084;8.646;2023-06-22T14:15:45;32.60;99.90
20845;DHT22;10583;49.084;8.646;2023-06-22T14:18:13;32.30;99.90
20845;DHT22;10583;49.084;8.646;2023-06-22T14:20:40;32.00;99.90
20845;DHT22;10583;49.084;8.646;2023-06-22T14:23:08;31.60;99.90
20845;DHT22;10583;49.084;8.646;2023-06-22T14:25:35;31.40;99.90
20845;DHT22;10583;49.084;8.646;2023-06-22T14:28:01;31.20;99.90
20845;DHT22;10583;49.084;8.646;2023-06-22T14:30:28;31.10;99.90
20845;DHT22;10583;49.084;8.646;2023-06-22T14:32:55;31.00;99.90
20845;DHT22;10583;49.084;8.646;2023-06-22T14:35:21;31.00;99.90
20845;DHT22;10583;49.084;8.646;2023-06-22T14:37:49;31.00;99.90
20845;DHT22;10583;49.084;8.646;2023-06-22T14:40:17;30.80;99.90
20845;DHT22;10583;49.084;8.646;2023-06-22T14:42:44;30.70;99.90
20845;DHT22;10583;49.084;8.646;2023-06-22T14:45:12;30.70;99.90
20845;DHT22;10583;49.084;8.646;2023-06-22T14:47:39;30.70;99.90
20845;DHT22;10583;49.084;8.646;2023-06-22T14:50:06;30.60;99.90
20845;DHT22;10583;49.084;8.646;2023-06-22T14:52:32;30.70;99.90
20845;DHT22;10583;49.084;8.646;2023-06-22T14:54:59;30.70;99.90
20845;DHT22;10583;49.084;8.646;2023-06-22T14:57:27;30.70;99.90
20845;DHT22;10583;49.084;8.646;2023-06-22T14:59:54;30.60;99.90
20845;DHT22;10583;49.084;8.646;2023-06-22T15:02:21;30.50;99.90
20845;DHT22;10583;49.084;8.646;2023-06-22T15:04:48;30.50;99.90
20845;DHT22;10583;49.084;8.646;2023-06-22T15:07:14;30.50;99.90
20845;DHT22;10583;49.084;8.646;2023-06-22T15:09:41;30.60;99.90
20845;DHT22;10583;49.084;8.646;2023-06-22T15:12:10;30.70;99.90
20845;DHT22;10583;49.084;8.646;2023-06-22T15:14:40;30.80;99.90
20845;DHT22;10583;49.084;8.646;2023-06-22T15:17:07;30.70;99.90
20845;DHT22;10583;49.084;8.646;2023-06-22T15:19:35;30.80;99.90
20845;DHT22;10583;49.084;8.646;2023-06-22T15:22:03;30.70;99.90
20845;DHT22;10583;49.084;8.646;2023-06-22T15:24:31;30.70;99.90
20845;DHT22;10583;49.084;8.646;2023-06-22T15:26:57;30.70;99.90
20845;DHT22;10583;49.084;8.646;2023-06-22T15:29:24;30.70;99.90
20845;DHT22;10583;49.084;8.646;2023-06-22T15:31:52;30.70;99.90